Mosquero, New Mexico
Current Conditions -  °F | °C
As of 3:53 AM on Friday 31 Oct 2014 (Local Time) from KTCC Reporting Station
Clear Clear  
Wind Chill: 35°   Ceiling: Unl
Heat Index: 40°   Visibility: 10mi
Dew Point: 27°   Wind: 7mph
Humidity: 60%   Direction: 10°N
Pressure: 30.39"   Gusts: NA
Location:  35.78°N, 103.96°W
Report Text: KTCC 310953Z AUTO 01006KT 10SM CLR 04/M03 A3039 RMK AO2 SLP264 T00441028
Loading
Personal Weather Stations






























Interactive Weather Map
Tropical Storm Tracking
New forecast layout! Learn more

10-Day Weather Forecast

Advertisements
Track Severe Weather on mobile